createdAt,value
2019-04-04T00:01:55.894Z,9.83
2019-04-04T00:04:24.522Z,9.69
2019-04-04T00:06:53.412Z,9.54
2019-04-04T00:09:21.992Z,9.40
2019-04-04T00:11:50.530Z,9.28
2019-04-04T00:14:19.472Z,9.18
2019-04-04T00:16:48.835Z,9.06
2019-04-04T00:19:18.178Z,8.97
2019-04-04T00:21:46.770Z,8.88
2019-04-04T00:24:15.443Z,8.78
2019-04-04T00:26:44.030Z,8.69
2019-04-04T00:29:13.017Z,8.62
2019-04-04T00:31:41.812Z,8.56
2019-04-04T00:34:10.348Z,8.51
2019-04-04T00:36:38.903Z,8.45
2019-04-04T00:39:09.537Z,8.39
2019-04-04T00:41:38.709Z,8.32
2019-04-04T00:44:07.905Z,8.27
2019-04-04T00:46:36.455Z,8.21
2019-04-04T00:49:05.458Z,8.14
2019-04-04T00:51:34.276Z,8.08
2019-04-04T00:54:03.264Z,8.01
2019-04-04T00:56:32.176Z,7.95
2019-04-04T00:59:00.964Z,7.91
2019-04-04T01:01:29.475Z,7.89
2019-04-04T01:04:00.344Z,7.86
2019-04-04T01:06:29.179Z,7.85
2019-04-04T01:08:57.763Z,7.88
2019-04-04T01:11:26.319Z,7.87
2019-04-04T01:13:57.561Z,7.84
2019-04-04T01:16:25.337Z,7.80
2019-04-04T01:18:53.921Z,7.77
2019-04-04T01:21:22.916Z,7.74
2019-04-04T01:23:51.615Z,7.71
2019-04-04T01:26:22.538Z,7.70
2019-04-04T01:28:51.220Z,7.68
2019-04-04T01:31:20.006Z,7.68
2019-04-04T01:33:50.836Z,7.67
2019-04-04T01:36:19.337Z,7.68
2019-04-04T01:38:47.911Z,7.66
2019-04-04T01:41:16.808Z,7.64
2019-04-04T01:43:45.490Z,7.63
2019-04-04T01:46:15.283Z,7.62
2019-04-04T01:48:44.400Z,7.62
2019-04-04T01:51:13.389Z,7.61
2019-04-04T01:53:41.978Z,7.57
2019-04-04T01:56:10.555Z,7.55
2019-04-04T01:58:41.687Z,7.53
2019-04-04T02:01:09.668Z,7.52
2019-04-04T02:03:38.265Z,7.53
2019-04-04T02:06:07.146Z,7.55
2019-04-04T02:08:36.153Z,7.56
2019-04-04T02:11:05.534Z,7.55
2019-04-04T02:13:34.942Z,7.52
2019-04-04T02:16:03.530Z,7.51
2019-04-04T02:18:32.534Z,7.49
2019-04-04T02:21:01.217Z,7.46
2019-04-04T02:23:31.715Z,7.44
2019-04-04T02:26:00.339Z,7.43
2019-04-04T02:28:28.911Z,7.41
2019-04-04T02:30:57.713Z,7.38
2019-04-04T02:33:32.006Z,7.37
2019-04-04T02:35:57.936Z,7.34
2019-04-04T02:38:28.107Z,7.31
2019-04-04T02:40:56.948Z,7.26
2019-04-04T02:43:28.371Z,7.22
2019-04-04T02:45:55.851Z,7.17
2019-04-04T02:48:24.798Z,7.12
2019-04-04T02:50:53.839Z,7.09
2019-04-04T02:53:22.547Z,7.06
2019-04-04T02:55:51.523Z,7.06
2019-04-04T02:58:20.541Z,7.04
2019-04-04T03:00:49.235Z,7.03
2019-04-04T03:03:17.828Z,7.02
2019-04-04T03:05:50.752Z,7.01
2019-04-04T03:08:17.105Z,7.01
2019-04-04T03:10:48.953Z,6.98
2019-04-04T03:13:16.655Z,6.94
2019-04-04T03:15:48.171Z,6.90
2019-04-04T03:18:15.643Z,6.85
2019-04-04T03:20:44.319Z,6.84
2019-04-04T03:23:13.227Z,6.80
2019-04-04T03:25:41.905Z,6.75
2019-04-04T03:28:10.481Z,6.70
2019-04-04T03:30:39.025Z,6.66
2019-04-04T03:33:07.881Z,6.64
2019-04-04T03:35:36.539Z,6.63
2019-04-04T03:38:05.127Z,6.63
2019-04-04T03:40:33.917Z,6.62
2019-04-04T03:43:03.008Z,6.58
2019-04-04T03:45:31.693Z,6.54
2019-04-04T03:48:00.284Z,6.49
2019-04-04T03:50:30.582Z,6.45
2019-04-04T03:52:59.699Z,6.42
2019-04-04T03:55:28.680Z,6.39
2019-04-04T03:57:57.481Z,6.36
2019-04-04T04:00:32.009Z,6.34
2019-04-04T04:03:00.593Z,6.31
2019-04-04T04:05:34.549Z,6.29
2019-04-04T04:08:01.650Z,6.30
2019-04-04T04:10:33.350Z,6.27
2019-04-04T04:13:00.573Z,6.25
2019-04-04T04:15:30.690Z,6.24
2019-04-04T04:17:59.458Z,6.21
2019-04-04T04:20:28.047Z,6.22
2019-04-04T04:22:56.637Z,6.26
2019-04-04T04:25:25.172Z,6.31
2019-04-04T04:27:54.208Z,6.36
2019-04-04T04:30:23.200Z,6.40
2019-04-04T04:32:55.837Z,6.45
2019-04-04T04:35:22.312Z,6.49
2019-04-04T04:37:53.474Z,6.54
2019-04-04T04:40:21.436Z,6.60
2019-04-04T04:42:50.728Z,6.66
2019-04-04T04:45:19.260Z,6.72
2019-04-04T04:47:47.895Z,6.75
2019-04-04T04:50:16.580Z,6.79
2019-04-04T04:52:47.426Z,6.81
2019-04-04T04:55:16.803Z,6.86
2019-04-04T04:57:45.617Z,6.89
2019-04-04T05:00:16.121Z,6.94
2019-04-04T05:02:44.541Z,6.98
2019-04-04T05:05:13.718Z,7.00
2019-04-04T05:07:44.653Z,7.02
2019-04-04T05:10:15.073Z,7.04
2019-04-04T05:12:44.313Z,7.06
2019-04-04T05:15:13.276Z,7.09
2019-04-04T05:17:45.135Z,7.11
2019-04-04T05:20:14.344Z,7.14
2019-04-04T05:22:43.220Z,7.18
2019-04-04T05:25:11.907Z,7.20
2019-04-04T05:27:40.603Z,7.24
2019-04-04T05:30:09.794Z,7.27
2019-04-04T05:32:38.379Z,7.32
2019-04-04T05:35:07.539Z,7.35
2019-04-04T05:37:38.216Z,7.39
2019-04-04T05:40:09.455Z,7.44
2019-04-04T05:42:38.155Z,7.47
2019-04-04T05:45:07.752Z,7.48
2019-04-04T05:47:36.436Z,7.50
2019-04-04T05:50:06.657Z,7.52
2019-04-04T05:52:35.341Z,7.55
2019-04-04T05:55:10.067Z,7.57
2019-04-04T05:57:37.000Z,7.61
2019-04-04T06:00:08.063Z,7.63
2019-04-04T06:02:36.790Z,7.64
2019-04-04T06:05:06.813Z,7.66
2019-04-04T06:07:36.480Z,7.68
2019-04-04T06:10:07.509Z,7.70
2019-04-04T06:12:37.669Z,7.72
2019-04-04T06:15:07.213Z,7.73
2019-04-04T06:17:38.799Z,7.73
2019-04-04T06:20:08.018Z,7.73
2019-04-04T06:22:36.675Z,7.73
2019-04-04T06:25:06.952Z,7.75
2019-04-04T06:27:39.876Z,7.75
2019-04-04T06:30:08.008Z,7.76
2019-04-04T06:32:38.866Z,7.78
2019-04-04T06:35:07.385Z,7.79
2019-04-04T06:37:38.428Z,7.80
2019-04-04T06:40:08.011Z,7.82
2019-04-04T06:42:37.164Z,7.82
2019-04-04T06:45:07.452Z,7.82
2019-04-04T06:47:36.176Z,7.82
2019-04-04T06:50:08.201Z,7.84
2019-04-04T06:52:36.722Z,7.88
2019-04-04T06:55:06.702Z,7.92
2019-04-04T06:57:36.589Z,7.94
2019-04-04T07:00:08.662Z,7.99
2019-04-04T07:02:37.274Z,8.06
2019-04-04T07:05:10.744Z,8.13
2019-04-04T07:07:43.116Z,8.19
2019-04-04T07:10:10.495Z,8.28
2019-04-04T07:12:39.176Z,8.37
2019-04-04T07:15:11.216Z,8.43
2019-04-04T07:17:40.388Z,8.50
2019-04-04T07:20:10.375Z,8.56
2019-04-04T07:22:39.096Z,8.58
2019-04-04T07:25:07.900Z,8.58
2019-04-04T07:27:36.483Z,8.56
2019-04-04T07:30:07.257Z,8.58
2019-04-04T07:32:35.831Z,8.61
2019-04-04T07:35:06.956Z,8.69
2019-04-04T07:37:35.648Z,8.79
2019-04-04T07:40:06.111Z,8.88
2019-04-04T07:42:34.677Z,8.97
2019-04-04T07:45:04.790Z,9.07
2019-04-04T07:47:33.512Z,9.15
2019-04-04T07:50:02.100Z,9.25
2019-04-04T07:52:32.747Z,9.35
2019-04-04T07:55:01.005Z,9.41
2019-04-04T07:57:30.307Z,9.44
2019-04-04T07:59:59.091Z,9.49
2019-04-04T08:02:27.682Z,9.57
2019-04-04T08:04:56.297Z,9.66
2019-04-04T08:07:24.896Z,9.78
2019-04-04T08:09:53.819Z,9.88
2019-04-04T08:12:22.477Z,9.97
2019-04-04T08:14:51.060Z,10.07
2019-04-04T08:17:19.722Z,10.16
2019-04-04T08:19:59.173Z,10.17
2019-04-04T08:22:19.213Z,10.19
2019-04-04T08:24:47.886Z,10.18
2019-04-04T08:27:16.599Z,10.18
2019-04-04T08:29:45.187Z,10.18
2019-04-04T08:32:15.202Z,10.22
2019-04-04T08:34:43.811Z,10.27
2019-04-04T08:37:12.473Z,10.31
2019-04-04T08:39:41.163Z,10.32
2019-04-04T08:42:09.881Z,10.35
2019-04-04T08:44:38.439Z,10.32
2019-04-04T08:47:07.034Z,10.26
2019-04-04T08:49:35.774Z,10.20
2019-04-04T08:52:16.081Z,10.11
2019-04-04T08:54:35.335Z,10.05
2019-04-04T08:57:03.933Z,10.01
2019-04-04T08:59:32.500Z,9.98
2019-04-04T09:02:01.107Z,9.95
2019-04-04T09:04:29.691Z,9.91
2019-04-04T09:06:58.259Z,9.86
2019-04-04T09:09:26.886Z,9.82
2019-04-04T09:11:55.667Z,9.80
2019-04-04T09:14:24.550Z,9.83
2019-04-04T09:16:53.082Z,9.92
2019-04-04T09:19:21.862Z,9.99
2019-04-04T09:21:50.489Z,10.00
2019-04-04T09:24:19.274Z,9.96
2019-04-04T09:26:48.208Z,9.90
2019-04-04T09:29:17.061Z,9.83
2019-04-04T09:31:45.599Z,9.81
2019-04-04T09:34:14.644Z,9.87
2019-04-04T09:36:43.317Z,9.97
2019-04-04T09:39:12.007Z,10.04
2019-04-04T09:41:40.697Z,10.07
2019-04-04T09:44:09.487Z,10.08
2019-04-04T09:46:38.024Z,10.10
2019-04-04T09:49:06.598Z,10.17
2019-04-04T09:51:35.316Z,10.25
2019-04-04T09:54:03.925Z,10.29
2019-04-04T09:56:32.728Z,10.31
2019-04-04T09:59:01.428Z,10.28
2019-04-04T10:01:30.024Z,10.25
2019-04-04T10:03:58.572Z,10.24
2019-04-04T10:06:27.114Z,10.26
2019-04-04T10:08:55.844Z,10.30
2019-04-04T10:11:24.531Z,10.35
2019-04-04T10:13:53.106Z,10.37
2019-04-04T10:16:21.629Z,10.36
2019-04-04T10:18:50.427Z,10.38
2019-04-04T10:21:18.988Z,10.39
2019-04-04T10:23:47.713Z,10.43
2019-04-04T10:26:16.585Z,10.49
2019-04-04T10:28:45.176Z,10.55
2019-04-04T10:31:13.854Z,10.58
2019-04-04T10:33:43.014Z,10.61
2019-04-04T10:36:11.575Z,10.64
2019-04-04T10:38:40.117Z,10.70
2019-04-04T10:41:08.829Z,10.77
2019-04-04T10:43:37.413Z,10.83
2019-04-04T10:46:06.104Z,10.88
2019-04-04T10:48:35.013Z,10.93
2019-04-04T10:51:03.785Z,10.91
2019-04-04T10:53:32.321Z,10.89
2019-04-04T10:56:01.063Z,10.84
2019-04-04T10:58:31.058Z,10.82
2019-04-04T11:00:59.815Z,10.84
2019-04-04T11:03:28.397Z,10.89
2019-04-04T11:05:56.977Z,10.95
2019-04-04T11:08:25.583Z,11.03
2019-04-04T11:10:54.159Z,11.16
2019-04-04T11:13:32.939Z,11.31
2019-04-04T11:15:53.184Z,11.38
2019-04-04T11:18:21.864Z,11.34
2019-04-04T11:20:50.662Z,11.37
2019-04-04T11:23:19.243Z,11.43
2019-04-04T11:25:48.445Z,11.46
2019-04-04T11:28:17.146Z,11.51
2019-04-04T11:30:45.765Z,11.51
2019-04-04T11:33:15.129Z,11.53
2019-04-04T11:35:43.820Z,11.55
2019-04-04T11:38:12.505Z,11.54
2019-04-04T11:40:41.195Z,11.53
2019-04-04T11:43:10.086Z,11.54
2019-04-04T11:45:38.637Z,11.58
2019-04-04T11:48:07.250Z,11.60
2019-04-04T11:50:35.851Z,11.59
2019-04-04T11:53:04.826Z,11.58
2019-04-04T11:55:34.252Z,11.54
2019-04-04T11:58:03.026Z,11.48
2019-04-04T12:00:33.251Z,11.44
2019-04-04T12:03:02.063Z,11.42
2019-04-04T12:05:30.611Z,11.40
2019-04-04T12:07:59.498Z,11.38
2019-04-04T12:10:28.184Z,11.38
2019-04-04T12:12:58.563Z,11.38
2019-04-04T12:15:27.197Z,11.40
2019-04-04T12:17:55.939Z,11.38
2019-04-04T12:20:24.579Z,11.37
2019-04-04T12:22:53.115Z,11.39
2019-04-04T12:25:21.676Z,11.40
2019-04-04T12:27:50.434Z,11.45
2019-04-04T12:30:20.675Z,11.45
2019-04-04T12:32:49.953Z,11.43
2019-04-04T12:35:18.633Z,11.44
2019-04-04T12:37:47.236Z,11.47
2019-04-04T12:40:20.748Z,11.51
2019-04-04T12:42:46.714Z,11.55
2019-04-04T12:45:15.706Z,11.57
2019-04-04T12:47:44.626Z,11.59
2019-04-04T12:50:15.161Z,11.68
2019-04-04T12:52:43.856Z,11.74
2019-04-04T12:55:20.208Z,11.80
2019-04-04T12:57:48.767Z,11.82
2019-04-04T13:00:17.681Z,11.82
2019-04-04T13:02:46.883Z,11.84
2019-04-04T13:05:16.675Z,11.87
2019-04-04T13:07:45.274Z,11.88
2019-04-04T13:10:14.679Z,11.89
2019-04-04T13:12:43.638Z,11.94
2019-04-04T13:15:12.977Z,11.96
2019-04-04T13:17:41.657Z,11.99
2019-04-04T13:20:10.776Z,12.01
2019-04-04T13:22:39.496Z,12.03
2019-04-04T13:25:09.467Z,12.05
2019-04-04T13:27:38.282Z,12.09
2019-04-04T13:30:09.908Z,12.14
2019-04-04T13:32:38.998Z,12.18
2019-04-04T13:35:07.927Z,12.21
2019-04-04T13:37:36.581Z,12.23
2019-04-04T13:40:07.250Z,12.28
2019-04-04T13:42:35.896Z,12.34
2019-04-04T13:45:06.528Z,12.39
2019-04-04T13:47:38.147Z,12.41
2019-04-04T13:50:07.466Z,12.40
2019-04-04T13:52:37.401Z,12.35
2019-04-04T13:55:07.312Z,12.31
2019-04-04T13:57:39.430Z,12.29
2019-04-04T14:00:09.293Z,12.33
2019-04-04T14:02:38.297Z,12.40
2019-04-04T14:05:10.566Z,12.45
2019-04-04T14:07:38.424Z,12.49
2019-04-04T14:10:07.826Z,12.55
2019-04-04T14:12:36.450Z,12.63
2019-04-04T14:15:08.680Z,12.74
2019-04-04T14:17:37.305Z,12.90
2019-04-04T14:20:09.544Z,13.18
2019-04-04T14:22:38.222Z,13.61
2019-04-04T14:25:07.574Z,14.05
2019-04-04T14:27:36.134Z,14.26
2019-04-04T14:30:09.320Z,14.35
2019-04-04T14:32:37.878Z,14.42
2019-04-04T14:35:09.022Z,14.50
2019-04-04T14:37:37.718Z,14.56
2019-04-04T14:40:11.720Z,14.65
2019-04-04T14:42:40.406Z,14.82
2019-04-04T14:45:09.575Z,15.11
2019-04-04T14:47:38.298Z,15.32
2019-04-04T14:50:08.977Z,15.38
2019-04-04T14:52:39.354Z,15.35
2019-04-04T14:55:08.228Z,15.29
2019-04-04T14:57:36.838Z,15.15
2019-04-04T15:00:11.073Z,15.08
2019-04-04T15:02:39.726Z,15.08
2019-04-04T15:05:08.923Z,15.01
2019-04-04T15:07:37.625Z,14.93
2019-04-04T15:10:06.700Z,14.97
2019-04-04T15:12:35.533Z,15.13
2019-04-04T15:15:05.311Z,15.35
2019-04-04T15:17:34.106Z,15.57
2019-04-04T15:20:03.013Z,15.66
2019-04-04T15:22:32.125Z,15.69
2019-04-04T15:25:00.981Z,15.68
2019-04-04T15:27:29.950Z,15.57
2019-04-04T15:29:58.972Z,15.37
2019-04-04T15:32:27.887Z,15.23
2019-04-04T15:34:56.538Z,15.18
2019-04-04T15:37:25.200Z,15.12
2019-04-04T15:39:53.910Z,15.04
2019-04-04T15:42:22.520Z,14.85
2019-04-04T15:44:51.181Z,14.64
2019-04-04T15:47:19.868Z,14.47
2019-04-04T15:49:48.453Z,14.34
2019-04-04T15:52:16.987Z,14.22
2019-04-04T15:54:45.572Z,14.07
2019-04-04T15:57:14.209Z,13.94
2019-04-04T15:59:42.787Z,13.79
2019-04-04T16:02:12.247Z,13.66
2019-04-04T16:04:40.994Z,13.57
2019-04-04T16:07:10.201Z,13.51
2019-04-04T16:09:38.919Z,13.45
2019-04-04T16:12:07.499Z,13.40
2019-04-04T16:14:36.132Z,13.36
2019-04-04T16:17:04.851Z,13.36
2019-04-04T16:19:33.510Z,13.37
2019-04-04T16:22:02.146Z,13.39
2019-04-04T16:24:32.002Z,13.39
2019-04-04T16:27:00.703Z,13.36
2019-04-04T16:29:29.483Z,13.27
2019-04-04T16:31:58.198Z,13.13
2019-04-04T16:34:26.747Z,13.00
2019-04-04T16:36:55.437Z,12.82
2019-04-04T16:39:24.118Z,12.64
2019-04-04T16:42:01.981Z,12.48
2019-04-04T16:44:24.469Z,12.36
2019-04-04T16:46:54.684Z,12.25
2019-04-04T16:49:23.371Z,12.15
2019-04-04T16:51:52.120Z,12.02
2019-04-04T16:54:20.727Z,11.91
2019-04-04T16:56:49.478Z,11.80
2019-04-04T16:59:18.115Z,11.66
2019-04-04T17:01:46.860Z,11.56
2019-04-04T17:04:15.486Z,11.48
2019-04-04T17:06:44.478Z,11.43
2019-04-04T17:09:13.380Z,11.38
2019-04-04T17:11:42.780Z,11.32
2019-04-04T17:14:11.563Z,11.25
2019-04-04T17:16:40.275Z,11.15
2019-04-04T17:19:09.043Z,11.06
2019-04-04T17:21:45.866Z,10.97
2019-04-04T17:24:14.501Z,10.88
2019-04-04T17:26:43.289Z,10.77
2019-04-04T17:29:12.179Z,10.69
2019-04-04T17:31:41.126Z,10.62
2019-04-04T17:34:09.939Z,10.54
2019-04-04T17:36:39.524Z,10.46
2019-04-04T17:39:09.139Z,10.39
2019-04-04T17:41:38.145Z,10.32
2019-04-04T17:44:09.110Z,10.24
2019-04-04T17:46:39.244Z,10.17
2019-04-04T17:49:07.809Z,10.10
2019-04-04T17:51:36.626Z,10.04
2019-04-04T17:54:05.996Z,9.99
2019-04-04T17:56:35.069Z,9.92
2019-04-04T17:59:03.648Z,9.89
2019-04-04T18:01:34.360Z,9.84
2019-04-04T18:04:02.800Z,9.81
2019-04-04T18:06:31.598Z,9.75
2019-04-04T18:09:00.143Z,9.71
2019-04-04T18:11:28.864Z,9.64
2019-04-04T18:13:58.677Z,9.60
2019-04-04T18:16:27.369Z,9.56
2019-04-04T18:18:55.897Z,9.53
2019-04-04T18:21:24.767Z,9.47
2019-04-04T18:23:53.313Z,9.43
2019-04-04T18:26:22.204Z,9.39
2019-04-04T18:28:50.776Z,9.37
2019-04-04T18:31:19.394Z,9.33
2019-04-04T18:33:48.258Z,9.30
2019-04-04T18:36:17.294Z,9.26
2019-04-04T18:38:46.083Z,9.22
2019-04-04T18:41:14.630Z,9.19
2019-04-04T18:43:43.584Z,9.15
2019-04-04T18:46:12.240Z,9.13
2019-04-04T18:48:40.904Z,9.11
2019-04-04T18:51:09.591Z,9.09
2019-04-04T18:53:38.185Z,9.07
2019-04-04T18:56:06.755Z,9.05
2019-04-04T18:58:35.445Z,9.04
2019-04-04T19:01:04.353Z,9.02
2019-04-04T19:03:32.909Z,8.98
2019-04-04T19:06:01.646Z,8.96
2019-04-04T19:08:30.597Z,8.93
2019-04-04T19:10:59.160Z,8.89
2019-04-04T19:13:27.801Z,8.86
2019-04-04T19:15:56.648Z,8.82
2019-04-04T19:18:25.248Z,8.78
2019-04-04T19:20:54.026Z,8.75
2019-04-04T19:23:22.580Z,8.72
2019-04-04T19:25:51.295Z,8.67
2019-04-04T19:28:20.396Z,8.64
2019-04-04T19:30:49.083Z,8.61
2019-04-04T19:33:17.756Z,8.56
2019-04-04T19:35:46.569Z,8.54
2019-04-04T19:38:15.446Z,8.50
2019-04-04T19:40:44.444Z,8.47
2019-04-04T19:43:18.317Z,8.44
2019-04-04T19:45:43.419Z,8.40
2019-04-04T19:48:12.016Z,8.36
2019-04-04T19:50:40.581Z,8.34
2019-04-04T19:53:09.195Z,8.31
2019-04-04T19:55:39.206Z,8.28
2019-04-04T19:58:08.169Z,8.24
2019-04-04T20:00:36.762Z,8.21
2019-04-04T20:03:06.330Z,8.19
2019-04-04T20:05:35.114Z,8.16
2019-04-04T20:08:03.695Z,8.12
2019-04-04T20:10:32.398Z,8.10
2019-04-04T20:13:01.155Z,8.06
2019-04-04T20:15:29.743Z,8.02
2019-04-04T20:17:58.315Z,8.00
2019-04-04T20:20:27.109Z,7.96
2019-04-04T20:22:55.895Z,7.93
2019-04-04T20:25:24.473Z,7.91
2019-04-04T20:27:54.922Z,7.87
2019-04-04T20:30:26.459Z,7.86
2019-04-04T20:32:55.055Z,7.84
2019-04-04T20:35:26.701Z,7.82
2019-04-04T20:37:54.223Z,7.80
2019-04-04T20:40:23.399Z,7.78
2019-04-04T20:42:52.470Z,7.78
2019-04-04T20:45:21.149Z,7.76
2019-04-04T20:47:49.818Z,7.75
2019-04-04T20:50:18.612Z,7.73
2019-04-04T20:52:47.177Z,7.72
2019-04-04T20:55:15.777Z,7.72
2019-04-04T20:57:44.882Z,7.71
2019-04-04T21:00:13.759Z,7.70
2019-04-04T21:02:42.353Z,7.69
2019-04-04T21:05:11.344Z,7.67
2019-04-04T21:07:40.239Z,7.65
2019-04-04T21:10:09.427Z,7.63
2019-04-04T21:12:38.010Z,7.62
2019-04-04T21:15:07.692Z,7.61
2019-04-04T21:17:36.338Z,7.60
2019-04-04T21:20:07.450Z,7.59
2019-04-04T21:22:36.049Z,7.57
2019-04-04T21:25:06.157Z,7.55
2019-04-04T21:27:35.062Z,7.55
2019-04-04T21:30:05.484Z,7.53
2019-04-04T21:32:34.067Z,7.53
2019-04-04T21:35:02.755Z,7.50
2019-04-04T21:37:31.334Z,7.46
2019-04-04T21:39:59.912Z,7.43
2019-04-04T21:42:28.500Z,7.38
2019-04-04T21:44:57.081Z,7.35
2019-04-04T21:47:25.623Z,7.33
2019-04-04T21:49:54.663Z,7.31
2019-04-04T21:52:23.243Z,7.29
2019-04-04T21:54:51.837Z,7.28
2019-04-04T21:57:20.713Z,7.27
2019-04-04T21:59:49.299Z,7.29
2019-04-04T22:02:17.885Z,7.30
2019-04-04T22:04:46.568Z,7.32
2019-04-04T22:07:15.355Z,7.31
2019-04-04T22:09:43.946Z,7.31
2019-04-04T22:12:12.835Z,7.31
2019-04-04T22:14:41.576Z,7.31
2019-04-04T22:17:10.206Z,7.32
2019-04-04T22:19:38.951Z,7.33
2019-04-04T22:22:07.679Z,7.35
2019-04-04T22:24:36.371Z,7.37
2019-04-04T22:27:05.154Z,7.41
2019-04-04T22:29:33.747Z,7.43
2019-04-04T22:32:02.738Z,7.46
2019-04-04T22:34:31.834Z,7.50
2019-04-04T22:37:00.515Z,7.55
2019-04-04T22:39:29.201Z,7.58
2019-04-04T22:41:57.784Z,7.62
2019-04-04T22:44:34.555Z,7.66
2019-04-04T22:46:56.695Z,7.69
2019-04-04T22:49:25.379Z,7.72
2019-04-04T22:51:53.965Z,7.75
2019-04-04T22:54:22.559Z,7.78
2019-04-04T22:56:51.541Z,7.80
2019-04-04T22:59:20.090Z,7.83
2019-04-04T23:01:48.710Z,7.87
2019-04-04T23:04:17.398Z,7.92
2019-04-04T23:06:45.981Z,7.97
2019-04-04T23:09:14.583Z,7.99
2019-04-04T23:11:43.250Z,8.00
2019-04-04T23:14:11.788Z,8.05
2019-04-04T23:16:40.419Z,8.06
2019-04-04T23:19:09.327Z,8.08
2019-04-04T23:21:37.893Z,8.10
2019-04-04T23:24:06.488Z,8.12
2019-04-04T23:26:35.067Z,8.14
2019-04-04T23:29:03.646Z,8.15
2019-04-04T23:31:32.227Z,8.17
2019-04-04T23:34:00.814Z,8.18
2019-04-04T23:36:35.284Z,8.20
2019-04-04T23:38:59.723Z,8.25
2019-04-04T23:41:28.511Z,8.27
2019-04-04T23:43:57.401Z,8.30
2019-04-04T23:46:26.088Z,8.32
2019-04-04T23:48:54.778Z,8.32
2019-04-04T23:51:23.309Z,8.33
2019-04-04T23:53:51.946Z,8.32
2019-04-04T23:56:20.557Z,8.32
2019-04-04T23:58:49.117Z,8.33
